Affton, MO

6:26 AM CST on December 18, 2014 (GMT -0600)
South County | Change Station
CLOSE
Current Station
Personal Weather Station
Location: Affton, MO
Elevation: 480 ft
Nearby Weather Stations

Elev 480 ft 38.55 °N, 90.32 °W | Updated 1 second ago

Snow
Snow
29.2 °F
Feels Like 29 °F
N
0.0
Wind Variable Wind from ESE
Gusts 0.0 mph

Today
High -- | Low -- °F
--% Chance of Precip.
Yesterday
High -- | Low -- °F
Precip. -- in
7:13 AM 4:42 PM
Waning Crescent, 15% visible
Pressure 30.28 in
Visibility 2.5 miles
Clouds Mostly Cloudy 3000 ft
Overcast 5500 ft
Windchill 29 °F
Dew Point 27 °F
Humidity 90%
Rainfall 0.00 in
Snow Depth Not available.
UV 0 out of 12
Pollen 1.80 out of 12
Air Quality Not available.
Flu Activity Not available.
SPECI KCPS 181220Z 05004KT 2 1/2SM -SN BR BKN030 OVC055 M01/M03 A3028 RMK AO2 SNB1157 P0000 T10111033 $

More Conditions Fewer Conditions

Pressure 30.28 in
Visibility 2.5 miles
Clouds Mostly Cloudy 3000 ft
Overcast 5500 ft
Windchill 29 °F
Dew Point 27 °F
Humidity 90%
Rainfall 0.00 in
Snow Depth Not available.
UV 0 out of 12
Pollen 1.80 out of 12
Air Quality Not available.
Flu Activity Not available.
SPECI KCPS 181220Z 05004KT 2 1/2SM -SN BR BKN030 OVC055 M01/M03 A3028 RMK AO2 SNB1157 P0000 T10111033 $

More Conditions Fewer Conditions

10-Day Weather Forecast

Almanac

Astronomy

Dec. 18, 2014 Rise Set
Actual Time
Civil Twilight
Nautical Twilight
Astronomical Twilight
Moon
Length of Visible Light
Length of Day
Tomorrow will be .
, % of the Moon is Illuminated

Today's Extremes

State Highs State Lows

Community

WunderPhotos

Upload Photos

1,778,923 photos uploaded!

WunderBlogs® & News

Nearby

Air Quality

  Air Quality AQ Index Pollutant
Not available.

Snow Depth

Station Depth Elevation

Earthquake Activity

City Distance Mag. Time & Date
Minimum magnitude displayed is 2.5.

Coastal Water Temperatures

Place Temperature

Nearby Weather Stations